Time;durP1;ratioP1;P1;durP2;ratioP2;P2;SDS_P1;SDS_P2;PMS_P1;PMS_P2;Temp;Humidity;BMP_temperature;BMP_pressure;BME280_temperature;BME280_humidity;BME280_pressure;Samples;Min_cycle;Max_cycle;Signal;HPM_P1;HPM_P2
2020/12/02 00:01:34;;;;;;;35.58;17.17;;;2.80;99.90;;;;;;5030179;28;20017;-71
2020/12/02 00:04:15;;;;;;;30.63;16.13;;;3.00;99.90;;;;;;5029258;28;20353;-69
2020/12/02 00:06:42;;;;;;;32.33;16.00;;;2.90;99.90;;;;;;5031437;28;20029;-72
2020/12/02 00:09:17;;;;;;;32.08;17.30;;;3.00;99.90;;;;;;5031350;28;20438;-70
2020/12/02 00:11:43;;;;;;;32.03;15.93;;;2.90;99.90;;;;;;5031463;28;20079;-71
2020/12/02 00:14:18;;;;;;;37.58;16.95;;;2.90;99.90;;;;;;5030495;28;20602;-71
2020/12/02 00:16:45;;;;;;;34.03;16.92;;;2.90;99.90;;;;;;5031264;28;20025;-71
2020/12/02 00:19:11;;;;;;;33.75;16.38;;;2.90;99.90;;;;;;5031219;28;20664;-70
2020/12/02 00:21:37;;;;;;;32.28;16.73;;;2.80;99.90;;;;;;5031210;28;20021;-71
2020/12/02 00:24:03;;;;;;;35.95;15.85;;;2.90;99.90;;;;;;5030332;28;20022;-70
2020/12/02 00:26:28;;;;;;;39.20;17.23;;;2.90;99.90;;;;;;5031072;28;20500;-70
2020/12/02 00:28:57;;;;;;;44.83;17.85;;;2.90;99.90;;;;;;5031170;28;20106;-69
2020/12/02 00:31:23;;;;;;;45.22;17.00;;;2.90;99.90;;;;;;5030994;28;20033;-70
2020/12/02 00:33:49;;;;;;;40.65;16.40;;;2.90;99.90;;;;;;5030339;28;20100;-69
2020/12/02 00:36:15;;;;;;;43.92;18.02;;;2.90;99.90;;;;;;5031091;28;20108;-69
2020/12/02 00:38:41;;;;;;;36.88;16.23;;;2.90;99.90;;;;;;5030964;28;20033;-71
2020/12/02 00:41:10;;;;;;;38.97;16.70;;;2.90;99.90;;;;;;5030853;28;20018;-72
2020/12/02 00:43:35;;;;;;;39.58;16.40;;;2.90;99.90;;;;;;5032195;28;20021;-70
2020/12/02 00:46:04;;;;;;;36.00;16.80;;;2.90;99.90;;;;;;5034958;28;20435;-70
2020/12/02 00:48:31;;;;;;;33.88;15.35;;;2.80;99.90;;;;;;5034823;28;20500;-70
2020/12/02 00:50:58;;;;;;;36.83;17.58;;;2.80;99.90;;;;;;5033279;28;20045;-70
2020/12/02 00:53:31;;;;;;;35.35;16.65;;;2.90;99.90;;;;;;5033743;28;20035;-70
2020/12/02 00:55:57;;;;;;;39.83;16.67;;;3.00;99.90;;;;;;5034141;28;20032;-71
2020/12/02 00:58:52;;;;;;;37.22;17.08;;;2.90;99.90;;;;;;5033276;28;20108;-71
2020/12/02 01:01:31;;;;;;;38.45;16.65;;;2.80;99.90;;;;;;5034468;28;20161;-71
2020/12/02 01:03:57;;;;;;;34.00;15.10;;;2.80;99.90;;;;;;5033880;28;20041;-71
2020/12/02 01:06:23;;;;;;;32.75;14.40;;;2.80;99.90;;;;;;5034444;28;20428;-71
2020/12/02 01:08:50;;;;;;;33.05;14.48;;;2.80;99.90;;;;;;5034378;28;20113;-70
2020/12/02 01:11:28;;;;;;;33.15;14.90;;;2.90;99.90;;;;;;5034190;28;20097;-70
2020/12/02 01:14:05;;;;;;;34.85;13.90;;;2.90;99.90;;;;;;5033621;28;20025;-69
2020/12/02 01:16:34;;;;;;;32.45;14.30;;;3.00;99.90;;;;;;5032951;28;20428;-69
2020/12/02 01:19:00;;;;;;;34.92;15.07;;;2.90;99.90;;;;;;5048039;28;20025;-71
2020/12/02 01:21:37;;;;;;;38.70;15.60;;;2.90;99.90;;;;;;5045192;28;20022;-72
2020/12/02 01:24:07;;;;;;;33.88;14.48;;;2.90;99.90;;;;;;5045169;28;20018;-72
2020/12/02 01:26:39;;;;;;;38.25;15.48;;;2.90;99.90;;;;;;5057563;28;20025;-71
2020/12/02 01:29:12;;;;;;;34.33;14.23;;;2.90;99.90;;;;;;5056364;28;20093;-71
2020/12/02 01:31:38;;;;;;;33.63;14.77;;;2.90;99.90;;;;;;5056638;28;20033;-71
2020/12/02 01:34:05;;;;;;;31.33;13.85;;;2.90;99.90;;;;;;5050795;28;20101;-70
2020/12/02 01:36:46;;;;;;;29.50;15.00;;;2.90;99.90;;;;;;5034970;28;20022;-71
2020/12/02 01:39:13;;;;;;;30.80;14.55;;;2.90;99.90;;;;;;5034085;28;20022;-70
2020/12/02 01:41:38;;;;;;;29.80;15.75;;;3.00;99.90;;;;;;5034123;28;20100;-71
2020/12/02 01:44:05;;;;;;;30.88;16.10;;;2.90;99.90;;;;;;5033062;28;20106;-72
2020/12/02 01:46:42;;;;;;;28.63;15.70;;;2.90;99.90;;;;;;5034060;28;20487;-70
2020/12/02 01:49:14;;;;;;;28.95;15.25;;;2.90;99.90;;;;;;5033930;28;20033;-72
2020/12/02 01:52:00;;;;;;;27.05;15.45;;;2.90;99.90;;;;;;5033710;28;20037;-71
2020/12/02 01:54:41;;;;;;;29.08;15.32;;;2.90;99.90;;;;;;5032308;28;20029;-72
2020/12/02 01:57:19;;;;;;;27.40;13.93;;;2.90;99.90;;;;;;5034103;28;20029;-72
2020/12/02 02:00:13;;;;;;;31.33;15.60;;;3.00;99.90;;;;;;5032292;28;20121;-72
2020/12/02 02:03:26;;;;;;;33.47;15.45;;;2.90;99.90;;;;;;5032661;28;20086;-70
2020/12/02 02:06:01;;;;;;;28.50;15.15;;;2.90;99.90;;;;;;5011295;28;20084;-70
2020/12/02 02:08:31;;;;;;;30.35;15.10;;;2.90;99.90;;;;;;5030025;28;20511;-71
2020/12/02 02:11:00;;;;;;;26.42;14.73;;;2.80;99.90;;;;;;5033257;28;20025;-71
2020/12/02 02:14:03;;;;;;;26.88;15.02;;;2.90;99.90;;;;;;5032565;28;20048;-71
2020/12/02 02:16:34;;;;;;;30.45;17.20;;;2.80;99.90;;;;;;5033007;28;20472;-72
2020/12/02 02:19:01;;;;;;;32.25;17.00;;;2.90;99.90;;;;;;5033267;28;20053;-70
2020/12/02 02:21:34;;;;;;;28.83;16.08;;;2.90;99.90;;;;;;5032806;28;20071;-71
2020/12/02 02:24:00;;;;;;;31.98;16.98;;;2.80;99.90;;;;;;5032316;28;20617;-70
2020/12/02 02:26:46;;;;;;;29.83;15.68;;;2.80;99.90;;;;;;5033081;28;20029;-70
2020/12/02 02:29:18;;;;;;;33.95;16.88;;;2.90;99.90;;;;;;5033077;28;20021;-71
2020/12/02 02:32:05;;;;;;;34.45;18.52;;;2.80;99.90;;;;;;5032577;28;20022;-71
2020/12/02 02:34:34;;;;;;;37.97;18.27;;;2.80;99.90;;;;;;5030596;28;20040;-69
2020/12/02 02:37:03;;;;;;;37.80;18.10;;;2.90;99.90;;;;;;5032786;28;20032;-69
2020/12/02 02:39:29;;;;;;;41.50;19.42;;;2.90;99.90;;;;;;5032460;28;20033;-70
2020/12/02 02:42:01;;;;;;;41.13;18.80;;;2.90;99.90;;;;;;5032598;28;20026;-71
2020/12/02 02:44:27;;;;;;;38.25;18.42;;;2.80;99.90;;;;;;5031671;28;20759;-71
2020/12/02 02:46:54;;;;;;;38.33;18.83;;;2.80;99.90;;;;;;5032599;28;20041;-70
2020/12/02 02:49:19;;;;;;;40.75;18.77;;;2.80;99.90;;;;;;5032346;28;20083;-70
2020/12/02 02:51:45;;;;;;;40.42;19.80;;;2.90;99.90;;;;;;5032129;28;20037;-70
2020/12/02 02:54:11;;;;;;;47.60;21.10;;;2.90;99.90;;;;;;5031359;28;20706;-69
2020/12/02 02:56:37;;;;;;;43.47;19.33;;;2.80;99.90;;;;;;5032307;28;20037;-70
2020/12/02 02:59:03;;;;;;;38.10;19.63;;;2.80;99.90;;;;;;5032378;28;20026;-70
2020/12/02 03:01:28;;;;;;;35.20;19.27;;;2.80;99.90;;;;;;5032879;28;20103;-70
2020/12/02 03:03:54;;;;;;;38.65;18.77;;;2.80;99.90;;;;;;5031679;28;20418;-69
2020/12/02 03:06:20;;;;;;;33.90;18.33;;;2.80;99.90;;;;;;5031340;28;20696;-70
2020/12/02 03:08:46;;;;;;;42.58;20.70;;;2.80;99.90;;;;;;5031790;28;20474;-70
2020/12/02 03:11:16;;;;;;;43.78;21.58;;;2.80;99.90;;;;;;5032281;28;20033;-70
2020/12/02 03:13:50;;;;;;;39.75;19.88;;;2.80;99.90;;;;;;5031724;28;20025;-69
2020/12/02 03:16:30;;;;;;;43.53;20.60;;;2.80;99.90;;;;;;5032137;28;20072;-70
2020/12/02 03:19:00;;;;;;;43.65;20.67;;;2.80;99.90;;;;;;5012645;28;20021;-70
2020/12/02 03:21:26;;;;;;;36.80;19.20;;;2.70;99.90;;;;;;5012323;28;20026;-71
2020/12/02 03:23:52;;;;;;;39.88;19.58;;;2.70;99.90;;;;;;5011180;28;20057;-72
2020/12/02 03:26:19;;;;;;;39.90;20.15;;;2.70;99.90;;;;;;5010902;28;20026;-71
2020/12/02 03:28:46;;;;;;;38.03;18.67;;;2.70;99.90;;;;;;5012075;28;20034;-70
2020/12/02 03:31:16;;;;;;;39.35;18.63;;;2.70;99.90;;;;;;5011041;28;20053;-70
2020/12/02 03:33:42;;;;;;;37.90;20.20;;;2.70;99.90;;;;;;5011526;28;20030;-70
2020/12/02 03:36:12;;;;;;;36.92;19.08;;;2.70;99.90;;;;;;5012022;28;20083;-70
2020/12/02 03:38:39;;;;;;;39.33;19.17;;;2.70;99.90;;;;;;5011676;28;20041;-70
2020/12/02 03:41:05;;;;;;;36.47;18.95;;;2.80;99.90;;;;;;5011878;28;20551;-70
2020/12/02 03:43:31;;;;;;;39.63;18.92;;;2.70;99.90;;;;;;5011304;28;20424;-70
2020/12/02 03:45:56;;;;;;;38.17;18.00;;;2.70;99.90;;;;;;5011943;28;20032;-70
2020/12/02 03:48:22;;;;;;;36.97;18.38;;;2.60;99.90;;;;;;5027207;28;20159;-71
2020/12/02 03:50:48;;;;;;;37.45;18.13;;;2.60;99.90;;;;;;5031103;28;20040;-69
2020/12/02 03:53:16;;;;;;;37.50;18.30;;;2.60;99.90;;;;;;5030708;28;20029;-71
2020/12/02 03:55:42;;;;;;;40.92;18.42;;;2.60;99.90;;;;;;5030055;28;20029;-70
2020/12/02 03:58:08;;;;;;;42.03;19.83;;;2.70;99.90;;;;;;5031382;28;20026;-70
2020/12/02 04:00:34;;;;;;;37.35;17.70;;;2.70;99.90;;;;;;5031281;28;20150;-70
2020/12/02 04:03:00;;;;;;;38.33;17.92;;;2.70;99.90;;;;;;5030716;28;20033;-71
2020/12/02 04:05:26;;;;;;;39.13;18.67;;;2.70;99.90;;;;;;5031201;28;20040;-70
2020/12/02 04:07:51;;;;;;;38.17;18.60;;;2.70;99.90;;;;;;5031492;28;20189;-71
2020/12/02 04:10:17;;;;;;;35.25;17.38;;;2.70;99.90;;;;;;5031161;28;20033;-70
2020/12/02 04:12:45;;;;;;;42.40;19.40;;;2.80;99.90;;;;;;5030676;28;20026;-70
2020/12/02 04:15:15;;;;;;;38.95;18.30;;;2.70;99.90;;;;;;5030928;28;20105;-70
2020/12/02 04:17:41;;;;;;;38.80;19.17;;;2.70;99.90;;;;;;5031795;28;20021;-69
2020/12/02 04:20:07;;;;;;;36.33;19.20;;;2.60;99.90;;;;;;5033766;28;20041;-70
2020/12/02 04:22:33;;;;;;;40.95;19.65;;;2.60;99.90;;;;;;5035117;28;20041;-71
2020/12/02 04:24:59;;;;;;;39.22;19.52;;;2.70;99.90;;;;;;5033575;28;20430;-70
2020/12/02 04:27:25;;;;;;;38.00;18.77;;;2.70;99.90;;;;;;5028489;28;20029;-72
2020/12/02 04:29:50;;;;;;;32.95;17.30;;;2.70;99.90;;;;;;5032730;28;20036;-72
2020/12/02 04:32:16;;;;;;;35.47;18.80;;;2.70;99.90;;;;;;5034484;28;20025;-72
2020/12/02 04:34:42;;;;;;;34.60;18.33;;;2.70;99.90;;;;;;5033662;28;20064;-69
2020/12/02 04:37:08;;;;;;;35.80;18.80;;;2.70;99.90;;;;;;5034581;28;20045;-73
2020/12/02 04:39:33;;;;;;;39.22;19.30;;;2.70;99.90;;;;;;5034168;28;20021;-71
2020/12/02 04:41:59;;;;;;;36.90;18.85;;;2.70;99.90;;;;;;5033430;28;20022;-70
2020/12/02 04:44:25;;;;;;;34.15;19.02;;;2.80;99.90;;;;;;5032467;28;20029;-69
2020/12/02 04:46:55;;;;;;;36.13;19.20;;;2.70;99.90;;;;;;5034535;28;20121;-72
2020/12/02 04:49:25;;;;;;;34.78;18.48;;;2.70;99.90;;;;;;5033958;28;20036;-70
2020/12/02 04:51:55;;;;;;;35.83;17.95;;;2.70;99.90;;;;;;5034328;28;20079;-71
2020/12/02 04:54:21;;;;;;;29.60;18.05;;;2.70;99.90;;;;;;5033704;28;20029;-71
2020/12/02 04:56:48;;;;;;;31.75;19.02;;;2.70;99.90;;;;;;5034085;28;20025;-71
2020/12/02 04:59:14;;;;;;;32.75;18.63;;;2.70;99.90;;;;;;5033942;28;20018;-70
2020/12/02 05:02:06;;;;;;;31.90;17.92;;;2.60;99.90;;;;;;5034190;28;20028;-70
2020/12/02 05:04:32;;;;;;;33.53;19.08;;;2.60;99.90;;;;;;5030102;28;20264;-71
2020/12/02 05:07:03;;;;;;;33.20;18.58;;;2.70;99.90;;;;;;5034160;28;20112;-71
2020/12/02 05:09:30;;;;;;;32.75;18.45;;;2.70;99.90;;;;;;5033410;28;20049;-71
2020/12/02 05:12:04;;;;;;;33.90;19.10;;;2.70;99.90;;;;;;5034024;28;20030;-71
2020/12/02 05:14:36;;;;;;;31.60;17.90;;;2.70;99.90;;;;;;5033307;28;20037;-70
2020/12/02 05:17:21;;;;;;;29.30;16.90;;;2.60;99.90;;;;;;5033937;28;20125;-70
2020/12/02 05:20:12;;;;;;;28.90;18.02;;;2.70;99.90;;;;;;5033620;28;20503;-71
2020/12/02 05:22:41;;;;;;;33.03;17.92;;;2.70;99.90;;;;;;5033071;28;20041;-70
2020/12/02 05:25:25;;;;;;;33.83;17.75;;;2.70;99.90;;;;;;5033512;28;20025;-69
2020/12/02 05:28:22;;;;;;;30.42;18.02;;;2.70;99.90;;;;;;5038883;28;20403;-71
2020/12/02 05:30:48;;;;;;;31.98;18.50;;;2.60;99.90;;;;;;5038857;28;20018;-71
2020/12/02 05:33:17;;;;;;;30.98;18.63;;;2.60;99.90;;;;;;5040747;28;20107;-71
2020/12/02 05:35:50;;;;;;;32.53;17.55;;;2.70;99.90;;;;;;5042635;28;20029;-70
2020/12/02 05:38:32;;;;;;;33.58;19.40;;;2.70;99.90;;;;;;5048418;28;20094;-71
2020/12/02 05:40:58;;;;;;;;;;;2.70;99.90;;;;;;5035760;28;20079;-71
2020/12/02 05:43:33;;;;;;;30.73;16.67;;;2.70;99.90;;;;;;5033371;28;19919;-71
2020/12/02 05:45:59;;;;;;;30.00;17.35;;;2.70;99.90;;;;;;5033773;28;20097;-71
2020/12/02 05:48:35;;;;;;;27.45;17.15;;;2.70;99.90;;;;;;5033383;28;20595;-71
2020/12/02 05:51:02;;;;;;;29.45;17.55;;;2.70;99.90;;;;;;5033085;28;20027;-70
2020/12/02 05:53:39;;;;;;;29.23;17.35;;;2.70;99.90;;;;;;5032330;28;20025;-70
2020/12/02 05:56:08;;;;;;;32.35;18.30;;;2.70;99.90;;;;;;5033141;28;20104;-75
2020/12/02 05:58:34;;;;;;;31.00;18.52;;;2.70;99.90;;;;;;5032870;28;20072;-72
2020/12/02 06:01:00;;;;;;;31.65;18.83;;;2.70;99.90;;;;;;5032790;28;20030;-71
2020/12/02 06:03:34;;;;;;;28.98;17.80;;;2.80;99.90;;;;;;5032241;28;20029;-70
2020/12/02 06:06:05;;;;;;;29.90;18.17;;;2.90;99.90;;;;;;5032890;28;20021;-72
2020/12/02 06:08:50;;;;;;;28.27;17.00;;;2.90;99.90;;;;;;5032713;28;20025;-71
2020/12/02 06:11:16;;;;;;;28.60;16.83;;;3.00;99.90;;;;;;5032800;28;20166;-72
2020/12/02 06:13:48;;;;;;;25.80;15.65;;;2.90;99.90;;;;;;5032348;28;20132;-72
2020/12/02 06:16:22;;;;;;;26.27;16.00;;;3.00;99.90;;;;;;5031053;28;20034;-70
2020/12/02 06:18:48;;;;;;;26.77;15.70;;;3.00;99.90;;;;;;5012699;28;20022;-73
2020/12/02 06:21:34;;;;;;;26.55;14.95;;;3.00;99.90;;;;;;5012803;28;20524;-71
2020/12/02 06:24:00;;;;;;;26.27;15.10;;;2.90;99.90;;;;;;5012036;28;20018;-71
2020/12/02 06:26:37;;;;;;;25.17;15.20;;;2.80;99.90;;;;;;5012047;28;20034;-71
2020/12/02 06:29:04;;;;;;;24.75;15.13;;;2.70;99.90;;;;;;5012716;28;20027;-73
2020/12/02 06:31:31;;;;;;;23.25;14.77;;;2.80;99.90;;;;;;5012460;28;20030;-73
2020/12/02 06:33:58;;;;;;;22.50;13.68;;;2.80;99.90;;;;;;5010714;28;20036;-73
2020/12/02 06:36:33;;;;;;;26.05;15.43;;;2.80;99.90;;;;;;5012665;28;20022;-73
2020/12/02 06:39:10;;;;;;;25.38;14.90;;;2.90;99.90;;;;;;5012469;28;20018;-72
2020/12/02 06:41:44;;;;;;;25.70;14.75;;;2.80;99.90;;;;;;5012358;28;20093;-72
2020/12/02 06:44:12;;;;;;;23.85;14.50;;;2.80;99.90;;;;;;5011991;28;20026;-71
2020/12/02 06:46:59;;;;;;;24.30;14.93;;;2.80;99.90;;;;;;5015255;28;20041;-73
2020/12/02 06:49:29;;;;;;;21.58;14.35;;;2.80;99.90;;;;;;5032335;28;20096;-74
2020/12/02 06:52:07;;;;;;;24.58;14.35;;;2.80;99.90;;;;;;5032162;28;20443;-73
2020/12/02 06:54:36;;;;;;;20.33;13.02;;;2.80;99.90;;;;;;5031045;28;20032;-73
2020/12/02 06:57:24;;;;;;;20.20;12.77;;;2.80;99.90;;;;;;5032007;28;20029;-74
2020/12/02 06:59:54;;;;;;;22.52;14.75;;;2.80;99.90;;;;;;5031783;28;20028;-74
2020/12/02 07:02:26;;;;;;;27.08;12.40;;;2.70;99.90;;;;;;5031608;28;20369;-74
2020/12/02 07:04:52;;;;;;;21.35;12.68;;;2.70;99.90;;;;;;5031218;28;20021;-74
2020/12/02 07:07:18;;;;;;;21.25;13.82;;;2.80;99.90;;;;;;5032475;28;20056;-71
2020/12/02 07:09:47;;;;;;;21.30;13.38;;;2.70;99.90;;;;;;5030498;28;20463;-75
2020/12/02 07:12:17;;;;;;;20.30;12.20;;;2.70;99.90;;;;;;5032049;28;20579;-74
2020/12/02 07:14:43;;;;;;;22.30;14.43;;;2.70;99.90;;;;;;5030398;28;20025;-74
2020/12/02 07:17:12;;;;;;;22.77;13.23;;;2.80;99.90;;;;;;5030761;28;20022;-75
2020/12/02 07:19:45;;;;;;;19.58;12.85;;;2.70;99.90;;;;;;5032327;28;20093;-74
2020/12/02 07:22:20;;;;;;;20.52;12.85;;;2.70;99.90;;;;;;5031547;28;20033;-76
2020/12/02 07:24:51;;;;;;;18.65;12.00;;;2.70;99.90;;;;;;5030490;28;20151;-75
2020/12/02 07:27:21;;;;;;;22.23;12.45;;;2.70;99.90;;;;;;5032814;28;20104;-75
2020/12/02 07:30:00;;;;;;;21.02;12.70;;;2.70;99.90;;;;;;5031261;28;20037;-73
2020/12/02 07:32:26;;;;;;;24.02;13.88;;;2.70;99.90;;;;;;5032291;28;20033;-73
2020/12/02 07:35:13;;;;;;;23.02;14.18;;;2.70;99.90;;;;;;5032009;28;20032;-74
2020/12/02 07:37:38;;;;;;;25.63;15.57;;;2.70;99.90;;;;;;5032537;28;20080;-75
2020/12/02 07:40:05;;;;;;;26.88;16.75;;;2.70;99.90;;;;;;5031977;28;20435;-75
2020/12/02 07:42:39;;;;;;;24.83;16.17;;;2.70;99.90;;;;;;5033339;28;20025;-75
2020/12/02 07:45:14;;;;;;;26.25;15.55;;;2.70;99.90;;;;;;5036061;28;20116;-75
2020/12/02 07:47:52;;;;;;;23.85;14.88;;;2.70;99.90;;;;;;5032856;28;20036;-75
2020/12/02 07:50:27;;;;;;;21.05;13.85;;;2.70;99.90;;;;;;5034007;28;20053;-75
2020/12/02 07:52:59;;;;;;;21.27;13.18;;;2.80;99.90;;;;;;5035582;28;20036;-74
2020/12/02 07:55:37;;;;;;;23.38;17.10;;;2.90;99.90;;;;;;5035491;28;20095;-73
2020/12/02 07:58:04;;;;;;;23.35;14.27;;;2.80;99.90;;;;;;5033011;28;20033;-75
2020/12/02 08:00:38;;;;;;;21.10;13.48;;;2.80;99.90;;;;;;5033589;28;20025;-74
2020/12/02 08:03:05;;;;;;;22.48;13.88;;;2.80;99.90;;;;;;5032582;28;20024;-74
2020/12/02 08:05:49;;;;;;;22.60;13.93;;;2.80;99.90;;;;;;5033919;28;20025;-76
2020/12/02 08:08:15;;;;;;;20.95;12.75;;;2.90;99.90;;;;;;5023128;23;20085;-72
2020/12/02 08:10:41;;;;;;;23.67;13.73;;;2.70;99.90;;;;;;5012855;28;20420;-73
2020/12/02 08:13:18;;;;;;;23.42;14.02;;;2.80;99.90;;;;;;5005508;28;20031;-74
2020/12/02 08:15:53;;;;;;;22.42;14.13;;;2.90;99.90;;;;;;5008647;28;20041;-74
2020/12/02 08:18:28;;;;;;;22.10;13.23;;;2.90;99.90;;;;;;5027770;28;20388;-73
2020/12/02 08:21:04;;;;;;;20.48;12.13;;;2.90;99.90;;;;;;5012329;28;20480;-73
2020/12/02 08:23:34;;;;;;;19.38;12.40;;;3.00;99.90;;;;;;5011581;28;20030;-72
2020/12/02 08:26:18;;;;;;;19.27;12.45;;;3.00;99.90;;;;;;5011841;28;20026;-73
2020/12/02 08:28:45;;;;;;;18.92;11.93;;;3.10;99.90;;;;;;5011165;28;20030;-73
2020/12/02 08:31:28;;;;;;;17.83;11.70;;;3.00;99.90;;;;;;5011171;28;20029;-73
2020/12/02 08:34:24;;;;;;;17.15;11.48;;;3.00;99.90;;;;;;5011917;28;20093;-73
2020/12/02 08:37:11;;;;;;;17.60;11.18;;;3.00;99.90;;;;;;5011868;28;20037;-73
2020/12/02 08:39:41;;;;;;;17.48;11.57;;;3.00;99.90;;;;;;5012044;28;20101;-75
2020/12/02 08:42:10;;;;;;;17.95;11.82;;;3.00;99.90;;;;;;5008914;28;20572;-74
2020/12/02 08:44:36;;;;;;;19.42;11.43;;;3.10;99.90;;;;;;4993986;28;20042;-72
2020/12/02 08:47:15;;;;;;;14.82;9.98;;;3.20;99.90;;;;;;4995232;28;20560;-73
2020/12/02 08:49:41;;;;;;;16.55;10.70;;;3.20;99.90;;;;;;4995806;28;20480;-73
2020/12/02 08:52:09;;;;;;;13.77;9.00;;;3.10;99.90;;;;;;4993689;28;20041;-72
2020/12/02 08:54:35;;;;;;;12.45;8.65;;;3.10;99.90;;;;;;4992274;28;20038;-73
2020/12/02 08:57:05;;;;;;;14.38;10.13;;;3.10;99.90;;;;;;5010228;28;20033;-73
2020/12/02 08:59:31;;;;;;;13.98;9.23;;;3.10;99.90;;;;;;5011991;28;20035;-73
2020/12/02 09:02:17;;;;;;;19.65;11.48;;;3.10;99.90;;;;;;5027061;28;20026;-73
2020/12/02 09:04:46;;;;;;;16.45;10.70;;;3.20;99.90;;;;;;5012985;28;20488;-71
2020/12/02 09:07:13;;;;;;;17.17;11.07;;;3.20;99.90;;;;;;5015882;28;20451;-74
2020/12/02 09:09:39;;;;;;;17.35;11.02;;;3.20;99.90;;;;;;5031508;28;20470;-72
2020/12/02 09:12:05;;;;;;;20.45;11.55;;;3.30;99.90;;;;;;5018373;28;20026;-73
2020/12/02 09:14:31;;;;;;;17.75;11.50;;;3.30;99.90;;;;;;5019689;28;20121;-74
2020/12/02 09:16:56;;;;;;;21.13;12.23;;;3.30;99.90;;;;;;5036047;28;20037;-73
2020/12/02 09:19:22;;;;;;;18.70;11.90;;;3.30;99.90;;;;;;5021912;28;20042;-72
2020/12/02 09:21:48;;;;;;;20.55;12.23;;;3.30;99.90;;;;;;5036709;28;20092;-74
2020/12/02 09:24:15;;;;;;;19.98;12.23;;;3.40;99.90;;;;;;5014676;28;20055;-74
2020/12/02 09:26:41;;;;;;;19.55;12.07;;;3.20;99.90;;;;;;5014546;28;20030;-72
2020/12/02 09:29:09;;;;;;;20.30;11.73;;;3.20;99.90;;;;;;5014511;28;20380;-72
2020/12/02 09:31:36;;;;;;;19.27;11.73;;;3.30;99.90;;;;;;5015194;28;20026;-73
2020/12/02 09:34:03;;;;;;;21.10;12.00;;;3.30;99.90;;;;;;5014910;28;20127;-74
2020/12/02 09:36:29;;;;;;;18.17;11.25;;;3.30;99.90;;;;;;5031189;28;20036;-72
2020/12/02 09:38:55;;;;;;;17.10;10.70;;;3.30;99.90;;;;;;5021557;28;20121;-75
2020/12/02 09:41:27;;;;;;;16.23;10.23;;;3.40;99.90;;;;;;5016975;28;20037;-73
2020/12/02 09:44:21;;;;;;;16.70;11.23;;;3.40;99.90;;;;;;5023113;28;20025;-73
2020/12/02 09:46:53;;;;;;;18.00;11.52;;;3.60;99.90;;;;;;5033679;28;20042;-73
2020/12/02 09:49:19;;;;;;;;;;;3.60;99.90;;;;;;5015161;28;20037;-73
2020/12/02 09:51:53;;;;;;;15.88;9.57;;;3.70;99.90;;;;;;5014246;28;19906;-74
2020/12/02 09:54:19;;;;;;;14.23;9.43;;;3.70;99.90;;;;;;5014273;28;20105;-74
2020/12/02 09:56:45;;;;;;;19.15;10.18;;;3.80;99.90;;;;;;5012971;28;20392;-73
2020/12/02 09:59:11;;;;;;;12.60;9.13;;;3.70;99.90;;;;;;4995854;28;20026;-73
2020/12/02 10:02:04;;;;;;;15.80;9.55;;;3.80;99.90;;;;;;4996950;28;20503;-75
2020/12/02 10:04:30;;;;;;;14.43;8.90;;;3.80;99.90;;;;;;4998047;28;20027;-73
2020/12/02 10:07:37;;;;;;;14.07;9.60;;;3.80;99.90;;;;;;4999553;28;20032;-74
2020/12/02 10:10:02;;;;;;;15.25;9.60;;;3.80;99.90;;;;;;5011145;28;20117;-72
2020/12/02 10:12:51;;;;;;;15.98;10.00;;;4.00;99.90;;;;;;4994730;28;20516;-72
2020/12/02 10:15:35;;;;;;;16.73;10.43;;;3.90;99.90;;;;;;4994300;28;20496;-73
2020/12/02 10:18:38;;;;;;;13.80;9.35;;;4.00;99.90;;;;;;4995143;28;20109;-72
2020/12/02 10:21:23;;;;;;;15.20;9.60;;;3.90;99.90;;;;;;4996250;28;20054;-73
2020/12/02 10:23:57;;;;;;;15.23;9.40;;;3.90;99.90;;;;;;4996815;28;20026;-73
2020/12/02 10:26:31;;;;;;;16.13;9.63;;;3.90;99.90;;;;;;4994728;28;20026;-73
2020/12/02 10:29:08;;;;;;;15.63;9.65;;;3.90;99.90;;;;;;4994687;28;20026;-73
2020/12/02 10:31:47;;;;;;;16.27;10.55;;;3.80;99.90;;;;;;4994625;28;20455;-72
2020/12/02 10:34:30;;;;;;;17.70;10.18;;;3.70;99.90;;;;;;4994641;28;20125;-72
2020/12/02 10:37:17;;;;;;;15.90;10.02;;;3.60;99.90;;;;;;4994386;28;20073;-74
2020/12/02 10:39:42;;;;;;;17.95;10.05;;;3.60;99.90;;;;;;4994119;28;20037;-73
2020/12/02 10:42:43;;;;;;;15.80;9.82;;;3.70;99.90;;;;;;4992342;28;20026;-74
2020/12/02 10:45:15;;;;;;;13.70;8.25;;;3.60;99.90;;;;;;4993033;28;20150;-73
2020/12/02 10:48:03;;;;;;;14.98;9.82;;;3.70;99.90;;;;;;4993797;28;20420;-73
2020/12/02 10:50:31;;;;;;;16.42;9.20;;;3.70;99.90;;;;;;4993764;28;20441;-73
2020/12/02 10:53:00;;;;;;;14.32;8.73;;;3.70;99.90;;;;;;4985977;28;20034;-71
2020/12/02 10:55:30;;;;;;;12.52;8.27;;;4.00;99.90;;;;;;4990163;28;20018;-71
2020/12/02 10:57:59;;;;;;;10.95;7.45;;;4.00;99.90;;;;;;4993039;28;20019;-71
2020/12/02 11:00:25;;;;;;;20.02;10.27;;;3.90;99.90;;;;;;4993540;28;20423;-72
2020/12/02 11:03:11;;;;;;;10.93;7.63;;;3.90;99.90;;;;;;4992803;28;20432;-72
2020/12/02 11:05:38;;;;;;;11.07;7.63;;;4.00;99.90;;;;;;4992939;28;20030;-71
2020/12/02 11:08:26;;;;;;;10.77;7.55;;;4.00;99.90;;;;;;4992930;28;20065;-71
2020/12/02 11:11:19;;;;;;;12.85;7.80;;;4.00;99.90;;;;;;4993292;28;20023;-72
2020/12/02 11:13:58;;;;;;;;;;;3.90;99.90;;;;;;4991379;28;20034;-70
2020/12/02 11:16:52;;;;;;;12.18;7.20;;;3.90;99.90;;;;;;4992566;28;19913;-72
2020/12/02 11:19:31;;;;;;;12.43;7.63;;;3.90;99.90;;;;;;4992780;28;20030;-72
2020/12/02 11:22:26;;;;;;;12.75;7.35;;;4.00;99.90;;;;;;5005474;28;20023;-71
2020/12/02 11:25:02;;;;;;;12.40;8.13;;;3.90;99.90;;;;;;4987430;28;20134;-72
2020/12/02 11:27:28;;;;;;;12.90;7.90;;;3.80;99.90;;;;;;4991829;28;20078;-71
2020/12/02 11:29:54;;;;;;;14.70;9.35;;;3.80;99.90;;;;;;4993842;28;20037;-71
2020/12/02 11:32:54;;;;;;;11.98;7.90;;;3.90;99.90;;;;;;4993798;28;20165;-71
2020/12/02 11:35:41;;;;;;;15.30;8.85;;;4.00;99.90;;;;;;5025669;28;20063;-71
2020/12/02 11:38:22;;;;;;;16.00;9.02;;;3.90;99.90;;;;;;4994458;28;20034;-73
2020/12/02 11:41:07;;;;;;;13.27;8.73;;;3.80;99.90;;;;;;5009614;28;20117;-73
2020/12/02 11:43:40;;;;;;;14.07;8.57;;;3.90;99.90;;;;;;4993717;28;20018;-72
2020/12/02 11:46:08;;;;;;;15.48;8.88;;;3.80;99.90;;;;;;4996655;28;20379;-71
2020/12/02 11:48:37;;;;;;;15.68;9.45;;;3.80;99.90;;;;;;4993656;28;20535;-72
2020/12/02 11:51:16;;;;;;;17.40;9.93;;;3.80;99.90;;;;;;4993329;28;20018;-72
2020/12/02 11:53:44;;;;;;;15.88;10.60;;;3.90;99.90;;;;;;4992661;28;20046;-71
2020/12/02 11:56:29;;;;;;;18.65;10.48;;;3.90;99.90;;;;;;5004478;28;20092;-72
2020/12/02 11:59:16;;;;;;;20.38;10.63;;;4.00;99.90;;;;;;5013180;28;20511;-71
2020/12/02 12:01:50;;;;;;;16.73;10.32;;;3.90;99.90;;;;;;5027718;28;20064;-73
2020/12/02 12:04:34;;;;;;;18.80;10.55;;;3.90;99.90;;;;;;5012128;28;20021;-71
2020/12/02 12:07:05;;;;;;;16.73;10.65;;;3.90;99.90;;;;;;5013384;28;20041;-71
2020/12/02 12:09:41;;;;;;;15.93;9.60;;;3.70;99.90;;;;;;5012810;28;20033;-71
2020/12/02 12:12:26;;;;;;;21.27;11.73;;;3.60;99.90;;;;;;5007702;28;20519;-72
2020/12/02 12:15:20;;;;;;;17.83;11.07;;;3.70;99.90;;;;;;5008591;28;20039;-71
2020/12/02 12:17:48;;;;;;;16.83;11.02;;;3.60;99.90;;;;;;4992423;28;20026;-70
2020/12/02 12:20:22;;;;;;;23.42;12.13;;;3.60;99.90;;;;;;4993342;28;20035;-71
2020/12/02 12:23:06;;;;;;;20.27;11.55;;;3.70;99.90;;;;;;4992404;28;20022;-72
2020/12/02 12:25:35;;;;;;;24.23;12.00;;;3.60;99.90;;;;;;4998753;28;20030;-70
2020/12/02 12:28:06;;;;;;;22.30;11.55;;;3.70;99.90;;;;;;5012154;28;20097;-69
2020/12/02 12:30:32;;;;;;;20.38;11.57;;;3.60;99.90;;;;;;5002230;28;20031;-71
2020/12/02 12:33:12;;;;;;;24.27;12.40;;;3.60;99.90;;;;;;4982238;28;20560;-69
2020/12/02 12:35:43;;;;;;;21.33;12.35;;;3.60;99.90;;;;;;4985498;28;20158;-71
2020/12/02 12:38:20;;;;;;;29.23;12.35;;;3.60;99.90;;;;;;4988955;28;20088;-71
2020/12/02 12:41:00;;;;;;;27.33;13.68;;;3.70;99.90;;;;;;4999691;28;20086;-70
2020/12/02 12:43:39;;;;;;;25.52;12.77;;;3.70;99.90;;;;;;4999156;28;20033;-71
2020/12/02 12:46:13;;;;;;;24.08;13.10;;;3.60;99.90;;;;;;4999386;28;20033;-74
2020/12/02 12:48:42;;;;;;;21.92;12.15;;;3.80;99.90;;;;;;4990048;28;20050;-72
2020/12/02 12:51:11;;;;;;;22.80;12.80;;;3.60;99.90;;;;;;4976718;28;20039;-72
2020/12/02 12:53:40;;;;;;;28.98;14.93;;;3.50;99.90;;;;;;4978087;28;20134;-72
2020/12/02 12:56:11;;;;;;;22.17;12.18;;;3.30;99.90;;;;;;4997449;28;20030;-73
2020/12/02 12:58:38;;;;;;;24.83;11.98;;;3.20;99.90;;;;;;5000477;28;20027;-74
2020/12/02 13:01:05;;;;;;;25.55;12.98;;;3.30;99.90;;;;;;5001557;28;20151;-73
2020/12/02 13:03:31;;;;;;;23.67;12.77;;;3.30;99.90;;;;;;5015583;28;20053;-73
2020/12/02 13:06:09;;;;;;;35.50;16.83;;;3.20;99.90;;;;;;5016154;28;20088;-72